createdAt,value
2018-11-01T00:00:43.938Z,6.00
2018-11-01T00:01:42.793Z,6.00
2018-11-01T00:02:42.227Z,5.70
2018-11-01T00:03:42.791Z,5.80
2018-11-01T00:04:42.239Z,6.10
2018-11-01T00:05:42.646Z,5.70
2018-11-01T00:06:42.253Z,5.80
2018-11-01T00:07:44.817Z,6.50
2018-11-01T00:08:42.202Z,5.50
2018-11-01T00:09:44.258Z,5.90
2018-11-01T00:10:42.504Z,6.20
2018-11-01T00:11:42.188Z,5.80
2018-11-01T00:12:43.002Z,5.50
2018-11-01T00:13:42.402Z,5.60
2018-11-01T00:14:42.440Z,5.90
2018-11-01T00:15:44.336Z,5.60
2018-11-01T00:16:44.379Z,6.00
2018-11-01T00:17:42.430Z,6.10
2018-11-01T00:18:44.342Z,5.80
2018-11-01T00:19:44.815Z,5.70
2018-11-01T00:20:42.831Z,5.90
2018-11-01T00:21:43.416Z,5.50
2018-11-01T00:22:42.626Z,5.80
2018-11-01T00:23:42.075Z,5.80
2018-11-01T00:24:42.070Z,5.30
2018-11-01T00:25:42.335Z,5.30
2018-11-01T00:26:42.345Z,5.40
2018-11-01T00:27:42.621Z,5.60
2018-11-01T00:28:42.348Z,5.60
2018-11-01T00:29:42.401Z,5.30
2018-11-01T00:30:44.899Z,5.20
2018-11-01T00:31:42.515Z,5.40
2018-11-01T00:32:42.560Z,5.30
2018-11-01T00:33:42.460Z,5.40
2018-11-01T00:34:42.427Z,5.20
2018-11-01T00:35:42.352Z,5.50
2018-11-01T00:36:43.084Z,5.10
2018-11-01T00:37:42.701Z,5.40
2018-11-01T00:38:43.204Z,5.60
2018-11-01T00:39:42.148Z,5.00
2018-11-01T00:40:42.649Z,5.20
2018-11-01T00:41:42.487Z,5.40
2018-11-01T00:42:42.735Z,5.40
2018-11-01T00:43:42.756Z,5.40
2018-11-01T00:44:42.925Z,5.10
2018-11-01T00:45:42.285Z,5.00
2018-11-01T00:46:42.674Z,5.10
2018-11-01T00:47:43.031Z,4.80
2018-11-01T00:48:42.515Z,4.60
2018-11-01T00:49:43.036Z,5.00
2018-11-01T00:50:42.632Z,5.00
2018-11-01T00:51:43.017Z,5.20
2018-11-01T00:52:42.761Z,5.00
2018-11-01T00:53:43.032Z,5.00
2018-11-01T00:54:41.979Z,5.00
2018-11-01T00:55:42.315Z,4.90
2018-11-01T00:56:42.338Z,5.10
2018-11-01T00:57:42.237Z,5.00
2018-11-01T00:58:42.793Z,4.70
2018-11-01T00:59:42.169Z,4.80
2018-11-01T01:00:42.672Z,4.50
2018-11-01T01:01:42.686Z,4.80
2018-11-01T01:02:42.664Z,4.60
2018-11-01T01:03:42.667Z,4.70
2018-11-01T01:04:44.831Z,4.30
2018-11-01T01:05:42.792Z,4.70
2018-11-01T01:06:42.814Z,4.70
2018-11-01T01:07:42.765Z,4.60
2018-11-01T01:08:42.840Z,4.50
2018-11-01T01:09:42.475Z,5.10
2018-11-01T01:10:42.499Z,4.70
2018-11-01T01:11:42.319Z,4.70
2018-11-01T01:12:42.472Z,4.80
2018-11-01T01:13:42.836Z,4.90
2018-11-01T01:14:42.394Z,4.80
2018-11-01T01:15:42.459Z,5.10
2018-11-01T01:16:42.353Z,4.80
2018-11-01T01:17:42.415Z,4.60
2018-11-01T01:18:42.110Z,5.20
2018-11-01T01:19:42.886Z,4.80
2018-11-01T01:20:42.230Z,4.90
2018-11-01T01:21:42.524Z,4.90
2018-11-01T01:22:42.711Z,4.80
2018-11-01T01:23:42.620Z,4.50
2018-11-01T01:24:42.494Z,4.60
2018-11-01T01:25:42.482Z,4.50
2018-11-01T01:26:42.828Z,4.80
2018-11-01T01:27:42.014Z,4.70
2018-11-01T01:28:42.399Z,4.60
2018-11-01T01:29:42.565Z,4.30
2018-11-01T01:30:42.484Z,4.80
2018-11-01T01:31:42.414Z,4.70
2018-11-01T01:32:42.506Z,4.50
2018-11-01T01:33:42.510Z,4.40
2018-11-01T01:34:42.593Z,4.00
2018-11-01T01:35:42.761Z,4.60
2018-11-01T01:36:43.040Z,4.60
2018-11-01T01:37:42.282Z,4.50
2018-11-01T01:38:42.333Z,4.60
2018-11-01T01:39:42.832Z,4.50
2018-11-01T01:40:42.981Z,4.60
2018-11-01T01:41:42.407Z,4.90
2018-11-01T01:42:42.662Z,4.40
2018-11-01T01:43:42.019Z,4.10
2018-11-01T01:44:42.603Z,4.30
2018-11-01T01:45:43.104Z,4.30
2018-11-01T01:46:42.402Z,4.30
2018-11-01T01:47:42.763Z,4.20
2018-11-01T01:48:42.980Z,4.20
2018-11-01T01:49:42.520Z,3.80
2018-11-01T01:50:42.074Z,3.90
2018-11-01T01:51:42.836Z,4.30
2018-11-01T01:52:42.519Z,4.10
2018-11-01T01:53:42.461Z,3.70
2018-11-01T01:54:42.789Z,3.80
2018-11-01T01:55:42.349Z,3.90
2018-11-01T01:56:42.357Z,3.90
2018-11-01T01:57:42.397Z,4.00
2018-11-01T01:58:42.626Z,4.10
2018-11-01T01:59:41.856Z,4.20
2018-11-01T02:00:42.839Z,4.30
2018-11-01T02:01:41.895Z,3.80
2018-11-01T02:02:42.382Z,3.90
2018-11-01T02:03:42.397Z,3.90
2018-11-01T02:04:42.342Z,4.10
2018-11-01T02:05:42.852Z,3.70
2018-11-01T02:06:42.347Z,3.50
2018-11-01T02:07:42.431Z,3.90
2018-11-01T02:08:42.425Z,3.90
2018-11-01T02:09:42.402Z,4.20
2018-11-01T02:10:42.413Z,3.90
2018-11-01T02:11:42.446Z,3.70
2018-11-01T02:12:42.379Z,3.80
2018-11-01T02:13:42.380Z,3.60
2018-11-01T02:14:42.440Z,3.80
2018-11-01T02:15:42.388Z,3.90
2018-11-01T02:16:42.743Z,4.00
2018-11-01T02:17:41.910Z,4.00
2018-11-01T02:18:42.850Z,3.90
2018-11-01T02:19:42.479Z,3.70
2018-11-01T02:20:42.848Z,3.50
2018-11-01T02:21:44.552Z,3.80
2018-11-01T02:22:42.413Z,3.80
2018-11-01T02:23:44.024Z,3.90
2018-11-01T02:24:43.926Z,3.50
2018-11-01T02:25:41.916Z,3.50
2018-11-01T02:26:43.980Z,3.60
2018-11-01T02:27:43.861Z,3.70
2018-11-01T02:28:43.953Z,3.80
2018-11-01T02:29:43.860Z,3.60
2018-11-01T02:30:43.955Z,3.80
2018-11-01T02:31:43.962Z,3.80
2018-11-01T02:32:44.273Z,3.80
2018-11-01T02:33:44.383Z,3.60
2018-11-01T02:34:44.021Z,3.70
2018-11-01T02:35:43.885Z,3.30
2018-11-01T02:36:44.008Z,3.70
2018-11-01T02:37:44.037Z,3.50
2018-11-01T02:38:44.015Z,3.90
2018-11-01T02:39:42.389Z,3.70
2018-11-01T02:40:44.003Z,3.90
2018-11-01T02:41:41.818Z,3.40
2018-11-01T02:42:42.298Z,3.40
2018-11-01T02:43:42.380Z,3.90
2018-11-01T02:44:42.463Z,3.60
2018-11-01T02:45:42.481Z,3.50
2018-11-01T02:46:42.308Z,3.80
2018-11-01T02:47:42.178Z,3.50
2018-11-01T02:48:42.462Z,3.80
2018-11-01T02:49:42.392Z,3.60
2018-11-01T02:50:42.346Z,3.60
2018-11-01T02:51:42.254Z,3.40
2018-11-01T02:52:42.186Z,3.60
2018-11-01T02:53:42.311Z,3.50
2018-11-01T02:54:42.402Z,3.60
2018-11-01T02:55:42.329Z,3.80
2018-11-01T02:56:41.784Z,3.80
2018-11-01T02:57:42.431Z,3.70
2018-11-01T02:58:42.438Z,3.40
2018-11-01T02:59:41.853Z,3.60
2018-11-01T03:00:42.322Z,3.70
2018-11-01T03:01:41.709Z,3.30
2018-11-01T03:02:42.593Z,3.40
2018-11-01T03:03:42.529Z,3.40
2018-11-01T03:04:42.200Z,3.50
2018-11-01T03:05:42.164Z,3.50
2018-11-01T03:06:41.918Z,3.60
2018-11-01T03:07:42.442Z,3.50
2018-11-01T03:08:42.506Z,3.90
2018-11-01T03:09:42.311Z,3.50
2018-11-01T03:10:42.341Z,3.90
2018-11-01T03:11:42.411Z,3.60
2018-11-01T03:12:42.403Z,3.70
2018-11-01T03:13:42.341Z,3.90
2018-11-01T03:14:42.401Z,3.90
2018-11-01T03:15:42.283Z,3.30
2018-11-01T03:16:42.471Z,3.70
2018-11-01T03:17:42.157Z,3.70
2018-11-01T03:18:42.345Z,3.70
2018-11-01T03:19:42.320Z,3.50
2018-11-01T03:20:41.762Z,3.60
2018-11-01T03:21:42.541Z,3.80
2018-11-01T03:22:41.793Z,3.80
2018-11-01T03:23:42.321Z,3.70
2018-11-01T03:24:41.975Z,3.90
2018-11-01T03:25:42.549Z,3.90
2018-11-01T03:26:42.481Z,4.00
2018-11-01T03:27:42.024Z,3.90
2018-11-01T03:28:42.083Z,3.50
2018-11-01T03:29:41.651Z,3.70
2018-11-01T03:30:42.039Z,3.70
2018-11-01T03:31:41.906Z,3.60
2018-11-01T03:32:41.967Z,3.30
2018-11-01T03:33:42.012Z,3.80
2018-11-01T03:34:42.189Z,3.70
2018-11-01T03:35:41.716Z,4.10
2018-11-01T03:36:42.487Z,3.60
2018-11-01T03:37:42.440Z,3.80
2018-11-01T03:38:42.230Z,3.50
2018-11-01T03:39:42.058Z,4.00
2018-11-01T03:40:42.174Z,3.90
2018-11-01T03:41:41.660Z,4.00
2018-11-01T03:42:42.033Z,3.80
2018-11-01T03:43:42.424Z,3.70
2018-11-01T03:44:42.130Z,3.90
2018-11-01T03:45:42.517Z,3.60
2018-11-01T03:46:42.355Z,3.90
2018-11-01T03:47:42.159Z,3.40
2018-11-01T03:48:41.952Z,3.70
2018-11-01T03:49:41.939Z,4.00
2018-11-01T03:50:42.078Z,4.00
2018-11-01T03:51:41.939Z,3.50
2018-11-01T03:52:41.919Z,3.80
2018-11-01T03:53:41.981Z,3.60
2018-11-01T03:54:41.883Z,3.80
2018-11-01T03:55:41.950Z,3.90
2018-11-01T03:56:42.007Z,3.30
2018-11-01T03:57:41.951Z,3.40
2018-11-01T03:58:41.923Z,3.70
2018-11-01T03:59:41.967Z,3.50
2018-11-01T04:00:42.334Z,3.30
2018-11-01T04:01:42.062Z,3.70
2018-11-01T04:02:42.055Z,3.70
2018-11-01T04:03:42.303Z,3.60
2018-11-01T04:04:42.439Z,3.70
2018-11-01T04:05:42.021Z,3.50
2018-11-01T04:06:42.041Z,3.70
2018-11-01T04:07:41.793Z,4.00
2018-11-01T04:08:42.250Z,3.80
2018-11-01T04:09:42.503Z,3.50
2018-11-01T04:10:41.526Z,3.80
2018-11-01T04:11:41.969Z,3.90
2018-11-01T04:12:41.965Z,3.70
2018-11-01T04:13:42.057Z,3.70
2018-11-01T04:14:42.000Z,3.50
2018-11-01T04:15:41.956Z,3.50
2018-11-01T04:16:42.029Z,4.10
2018-11-01T04:17:41.950Z,3.60
2018-11-01T04:18:41.981Z,3.70
2018-11-01T04:19:41.965Z,3.70
2018-11-01T04:20:42.393Z,3.70
2018-11-01T04:21:41.511Z,3.90
2018-11-01T04:22:41.873Z,3.60
2018-11-01T04:23:42.352Z,3.40
2018-11-01T04:24:41.503Z,4.10
2018-11-01T04:25:42.013Z,3.60
2018-11-01T04:26:41.952Z,4.00
2018-11-01T04:27:41.911Z,3.60
2018-11-01T04:28:41.989Z,3.70
2018-11-01T04:29:42.374Z,3.90
2018-11-01T04:30:41.442Z,3.50
2018-11-01T04:31:41.944Z,3.70
2018-11-01T04:32:43.398Z,3.90
2018-11-01T04:33:43.574Z,3.70
2018-11-01T04:34:43.418Z,4.00
2018-11-01T04:35:43.454Z,3.60
2018-11-01T04:36:43.435Z,3.80
2018-11-01T04:37:43.454Z,3.80
2018-11-01T04:38:43.498Z,3.40
2018-11-01T04:39:43.472Z,3.50
2018-11-01T04:40:43.642Z,3.80
2018-11-01T04:41:43.517Z,3.70
2018-11-01T04:42:43.465Z,3.30
2018-11-01T04:43:43.509Z,4.00
2018-11-01T04:44:43.513Z,3.60
2018-11-01T04:45:41.544Z,3.30
2018-11-01T04:46:43.455Z,3.60
2018-11-01T04:47:43.578Z,3.60
2018-11-01T04:48:41.993Z,3.70
2018-11-01T04:49:43.478Z,3.80
2018-11-01T04:50:42.071Z,3.50
2018-11-01T04:51:41.105Z,3.70
2018-11-01T04:52:41.366Z,3.70
2018-11-01T04:53:41.851Z,3.40
2018-11-01T04:54:41.915Z,3.50
2018-11-01T04:55:41.904Z,3.60
2018-11-01T04:56:42.471Z,3.70
2018-11-01T04:57:41.573Z,3.50
2018-11-01T04:58:42.372Z,3.40
2018-11-01T04:59:41.199Z,3.80
2018-11-01T05:00:41.705Z,3.80
2018-11-01T05:01:41.944Z,3.50
2018-11-01T05:02:42.074Z,3.60
2018-11-01T05:03:41.178Z,3.70
2018-11-01T05:04:41.926Z,3.30
2018-11-01T05:05:42.076Z,3.60
2018-11-01T05:06:42.119Z,3.70
2018-11-01T05:07:41.936Z,3.70
2018-11-01T05:08:41.909Z,3.30
2018-11-01T05:09:41.984Z,3.60
2018-11-01T05:10:41.977Z,3.40
2018-11-01T05:11:42.363Z,3.30
2018-11-01T05:12:41.594Z,3.20
2018-11-01T05:13:41.632Z,3.40
2018-11-01T05:14:41.756Z,3.60
2018-11-01T05:15:42.075Z,3.40
2018-11-01T05:16:42.382Z,3.70
2018-11-01T05:17:41.938Z,3.60
2018-11-01T05:18:42.035Z,3.90
2018-11-01T05:19:41.955Z,4.00
2018-11-01T05:20:42.145Z,4.00
2018-11-01T05:21:41.988Z,3.90
2018-11-01T05:22:41.576Z,3.80
2018-11-01T05:23:41.217Z,3.60
2018-11-01T05:24:41.659Z,4.00
2018-11-01T05:25:41.576Z,4.10
2018-11-01T05:26:41.525Z,3.80
2018-11-01T05:27:41.756Z,4.00
2018-11-01T05:28:41.090Z,3.70
2018-11-01T05:29:41.462Z,3.50
2018-11-01T05:30:41.956Z,3.90
2018-11-01T05:31:41.953Z,3.60
2018-11-01T05:32:41.920Z,3.80
2018-11-01T05:33:41.681Z,3.80
2018-11-01T05:34:41.879Z,3.80
2018-11-01T05:35:41.948Z,4.10
2018-11-01T05:36:41.883Z,3.80
2018-11-01T05:37:41.711Z,3.90
2018-11-01T05:38:42.078Z,3.90
2018-11-01T05:39:41.926Z,3.90
2018-11-01T05:40:42.281Z,4.10
2018-11-01T05:41:41.868Z,4.20
2018-11-01T05:42:41.922Z,4.00
2018-11-01T05:43:42.105Z,3.90
2018-11-01T05:44:41.592Z,4.10
2018-11-01T05:45:41.634Z,3.60
2018-11-01T05:46:41.526Z,3.90
2018-11-01T05:47:41.212Z,4.00
2018-11-01T05:48:41.755Z,4.10
2018-11-01T05:49:41.725Z,4.00
2018-11-01T05:50:41.766Z,3.70
2018-11-01T05:51:41.529Z,4.10
2018-11-01T05:52:41.964Z,4.40
2018-11-01T05:53:40.989Z,4.00
2018-11-01T05:54:40.958Z,4.00
2018-11-01T05:55:41.359Z,4.10
2018-11-01T05:56:40.917Z,3.90
2018-11-01T05:57:41.534Z,4.30
2018-11-01T05:58:41.369Z,4.10
2018-11-01T05:59:41.351Z,4.00
2018-11-01T06:00:40.928Z,4.50
2018-11-01T06:01:41.527Z,4.30
2018-11-01T06:02:41.453Z,4.60
2018-11-01T06:03:41.823Z,4.60
2018-11-01T06:04:41.461Z,4.30
2018-11-01T06:05:41.680Z,4.30
2018-11-01T06:06:41.628Z,4.40
2018-11-01T06:07:41.985Z,4.30
2018-11-01T06:08:41.486Z,4.30
2018-11-01T06:09:41.004Z,4.40
2018-11-01T06:10:41.694Z,4.50
2018-11-01T06:11:41.779Z,4.30
2018-11-01T06:12:41.534Z,4.20
2018-11-01T06:13:41.327Z,3.90
2018-11-01T06:14:41.282Z,4.20
2018-11-01T06:15:41.347Z,4.40
2018-11-01T06:16:41.632Z,4.50
2018-11-01T06:17:41.336Z,4.20
2018-11-01T06:18:41.329Z,4.30
2018-11-01T06:19:41.363Z,4.20
2018-11-01T06:20:41.502Z,4.50
2018-11-01T06:21:41.352Z,4.50
2018-11-01T06:22:41.355Z,4.40
2018-11-01T06:23:41.044Z,4.40
2018-11-01T06:24:41.562Z,4.90
2018-11-01T06:25:41.891Z,4.90
2018-11-01T06:26:41.402Z,5.10
2018-11-01T06:27:43.190Z,5.10
2018-11-01T06:28:43.035Z,4.80
2018-11-01T06:29:41.534Z,5.30
2018-11-01T06:30:41.135Z,4.90
2018-11-01T06:31:43.148Z,4.90
2018-11-01T06:32:40.825Z,4.80
2018-11-01T06:33:41.300Z,5.10
2018-11-01T06:34:43.391Z,5.50
2018-11-01T06:35:41.401Z,5.20
2018-11-01T06:36:42.981Z,4.40
2018-11-01T06:37:43.004Z,4.90
2018-11-01T06:38:42.938Z,4.80
2018-11-01T06:39:43.006Z,4.30
2018-11-01T06:40:43.373Z,4.90
2018-11-01T06:41:41.086Z,4.90
2018-11-01T06:42:43.024Z,5.30
2018-11-01T06:43:42.970Z,5.20
2018-11-01T06:44:41.461Z,5.00
2018-11-01T06:45:41.150Z,5.00
2018-11-01T06:46:40.932Z,5.50
2018-11-01T06:47:41.438Z,5.00
2018-11-01T06:48:41.447Z,5.00
2018-11-01T06:49:41.469Z,5.10
2018-11-01T06:50:41.341Z,4.90
2018-11-01T06:51:40.835Z,4.60
2018-11-01T06:52:41.382Z,4.30
2018-11-01T06:53:41.343Z,4.60
2018-11-01T06:54:41.286Z,4.40
2018-11-01T06:55:41.252Z,4.60
2018-11-01T06:56:41.597Z,4.10
2018-11-01T06:57:41.349Z,4.40
2018-11-01T06:58:40.678Z,4.40
2018-11-01T06:59:41.016Z,4.00
2018-11-01T07:00:40.936Z,4.30
2018-11-01T07:01:41.023Z,4.10
2018-11-01T07:02:40.667Z,4.10
2018-11-01T07:03:41.035Z,4.30
2018-11-01T07:04:40.660Z,4.00
2018-11-01T07:05:41.386Z,4.30
2018-11-01T07:06:41.884Z,4.20
2018-11-01T07:07:41.349Z,4.30
2018-11-01T07:08:40.949Z,3.90
2018-11-01T07:09:40.911Z,4.40
2018-11-01T07:10:41.048Z,4.20
2018-11-01T07:11:41.157Z,4.50
2018-11-01T07:12:41.094Z,4.20
2018-11-01T07:13:41.097Z,4.70
2018-11-01T07:14:41.111Z,4.40
2018-11-01T07:15:41.101Z,4.60
2018-11-01T07:16:41.074Z,4.60
2018-11-01T07:17:41.317Z,4.70
2018-11-01T07:18:41.280Z,4.40
2018-11-01T07:19:41.050Z,4.90
2018-11-01T07:20:41.470Z,4.60
2018-11-01T07:21:41.199Z,4.70
2018-11-01T07:22:41.600Z,4.50
2018-11-01T07:23:40.838Z,4.80
2018-11-01T07:24:40.624Z,4.60
2018-11-01T07:25:42.991Z,5.00
2018-11-01T07:26:41.274Z,4.60
2018-11-01T07:27:40.878Z,4.80
2018-11-01T07:28:40.883Z,4.90
2018-11-01T07:29:40.902Z,5.00
2018-11-01T07:30:41.144Z,4.80
2018-11-01T07:31:40.956Z,4.80
2018-11-01T07:32:41.023Z,5.10
2018-11-01T07:33:40.862Z,5.20
2018-11-01T07:34:41.102Z,5.30
2018-11-01T07:35:41.475Z,5.00
2018-11-01T07:36:41.385Z,5.10
2018-11-01T07:37:40.896Z,5.30
2018-11-01T07:38:41.333Z,4.90
2018-11-01T07:39:40.890Z,4.70
2018-11-01T07:40:41.097Z,5.10
2018-11-01T07:41:41.297Z,5.10
2018-11-01T07:42:41.483Z,4.80
2018-11-01T07:43:41.361Z,5.00
2018-11-01T07:44:41.333Z,5.10
